createdAt,value
2023-01-26T00:04:26.508Z,0.52
2023-01-26T00:09:30.212Z,0.51
2023-01-26T00:14:50.049Z,0.51
2023-01-26T00:19:56.191Z,0.40
2023-01-26T00:24:59.779Z,0.46
2023-01-26T00:30:05.330Z,0.51
2023-01-26T00:35:09.655Z,0.44
2023-01-26T00:40:13.652Z,0.46
2023-01-26T00:45:18.816Z,0.42
2023-01-26T00:50:22.346Z,0.45
2023-01-26T00:55:32.477Z,0.38
2023-01-26T01:00:40.150Z,0.35
2023-01-26T01:05:43.804Z,0.47
2023-01-26T01:10:49.304Z,0.44
2023-01-26T01:15:54.562Z,0.48
2023-01-26T01:20:58.874Z,0.44
2023-01-26T01:26:04.331Z,0.30
2023-01-26T01:31:10.936Z,0.37
2023-01-26T01:36:16.847Z,0.45
2023-01-26T01:41:24.029Z,0.46
2023-01-26T01:46:34.526Z,0.47
2023-01-26T01:51:43.656Z,0.49
2023-01-26T01:56:51.939Z,0.52
2023-01-26T02:01:58.229Z,0.49
2023-01-26T02:07:03.026Z,0.56
2023-01-26T02:12:10.356Z,0.49
2023-01-26T02:17:16.080Z,0.48
2023-01-26T02:22:29.540Z,0.55
2023-01-26T02:27:35.337Z,0.56
2023-01-26T02:32:38.948Z,0.69
2023-01-26T02:37:43.522Z,0.62
2023-01-26T02:42:48.604Z,0.62
2023-01-26T02:47:52.317Z,0.66
2023-01-26T02:52:56.295Z,0.67
2023-01-26T02:58:05.058Z,0.74
2023-01-26T03:03:15.367Z,0.74
2023-01-26T03:08:19.261Z,0.70
2023-01-26T03:13:24.337Z,0.83
2023-01-26T03:18:45.281Z,0.77
2023-01-26T03:24:06.997Z,0.85
2023-01-26T03:29:12.624Z,0.92
2023-01-26T03:34:18.378Z,0.96
2023-01-26T03:39:40.870Z,0.91
2023-01-26T03:45:03.705Z,0.90
2023-01-26T03:50:25.888Z,0.97
2023-01-26T03:55:48.154Z,1.06
2023-01-26T04:00:53.273Z,1.03
2023-01-26T04:06:17.258Z,1.03
2023-01-26T04:11:25.066Z,1.04
2023-01-26T04:16:47.720Z,1.06
2023-01-26T04:21:52.159Z,1.09
2023-01-26T04:26:57.066Z,1.06
2023-01-26T04:32:07.129Z,1.12
2023-01-26T04:37:11.703Z,1.17
2023-01-26T04:42:24.605Z,1.14
2023-01-26T04:47:30.858Z,1.10
2023-01-26T04:52:34.765Z,1.12
2023-01-26T04:57:38.863Z,1.11
2023-01-26T05:02:44.431Z,1.18
2023-01-26T05:07:50.552Z,1.25
2023-01-26T05:12:55.102Z,1.21
2023-01-26T05:18:07.178Z,1.17
2023-01-26T05:23:37.036Z,1.24
2023-01-26T05:29:01.263Z,1.23
2023-01-26T05:34:06.797Z,1.32
2023-01-26T05:39:12.871Z,1.24
2023-01-26T05:44:16.560Z,1.24
2023-01-26T05:49:26.667Z,1.14
2023-01-26T05:54:31.710Z,1.23
2023-01-26T05:59:37.088Z,1.29
2023-01-26T06:04:45.211Z,1.26
2023-01-26T06:09:48.962Z,1.25
2023-01-26T06:14:59.580Z,1.24
2023-01-26T06:20:15.040Z,1.24
2023-01-26T06:25:24.999Z,1.33
2023-01-26T06:30:29.051Z,1.36
2023-01-26T06:35:39.255Z,1.50
2023-01-26T06:40:47.768Z,1.58
2023-01-26T06:45:51.835Z,1.70
2023-01-26T06:51:05.728Z,1.86
2023-01-26T06:56:09.752Z,1.83
2023-01-26T07:01:28.439Z,1.83
2023-01-26T07:06:33.892Z,1.83
2023-01-26T07:11:37.816Z,1.83
2023-01-26T07:16:41.621Z,1.88
2023-01-26T07:21:46.778Z,1.98
2023-01-26T07:26:50.490Z,2.07
2023-01-26T07:31:54.119Z,2.18
2023-01-26T07:36:59.394Z,2.33
2023-01-26T07:42:03.198Z,2.39
2023-01-26T07:47:20.233Z,2.50
2023-01-26T07:52:26.331Z,2.70
2023-01-26T07:57:30.104Z,2.79
2023-01-26T08:02:33.909Z,2.82
2023-01-26T08:07:39.460Z,2.83
2023-01-26T08:12:43.199Z,2.81
2023-01-26T08:17:46.931Z,2.83
2023-01-26T08:22:52.139Z,2.92
2023-01-26T08:27:56.260Z,3.05
2023-01-26T08:32:59.873Z,3.20
2023-01-26T08:38:06.092Z,3.35
2023-01-26T08:43:09.747Z,3.43
2023-01-26T08:48:13.609Z,3.46
2023-01-26T08:53:18.673Z,3.76
2023-01-26T08:58:22.404Z,3.92
2023-01-26T09:03:26.053Z,3.99
2023-01-26T09:08:31.496Z,4.32
2023-01-26T09:13:37.344Z,4.64
2023-01-26T09:18:41.006Z,4.73
2023-01-26T09:23:46.215Z,4.91
2023-01-26T09:28:52.293Z,5.06
2023-01-26T09:33:55.964Z,5.02
2023-01-26T09:39:01.623Z,5.05
2023-01-26T09:44:09.617Z,5.28
2023-01-26T09:49:19.089Z,5.14
2023-01-26T09:54:32.529Z,5.19
2023-01-26T09:59:43.337Z,5.35
2023-01-26T10:04:51.383Z,5.35
2023-01-26T10:09:56.761Z,5.36
2023-01-26T10:15:04.473Z,5.34
2023-01-26T10:20:19.413Z,5.41
2023-01-26T10:25:31.027Z,5.36
2023-01-26T10:30:35.154Z,5.40
2023-01-26T10:35:39.051Z,5.56
2023-01-26T10:40:46.235Z,5.59
2023-01-26T10:45:50.038Z,5.83
2023-01-26T10:50:54.925Z,5.99
2023-01-26T10:56:05.708Z,6.05
2023-01-26T11:01:12.446Z,6.14
2023-01-26T11:06:17.746Z,6.25
2023-01-26T11:11:27.785Z,6.24
2023-01-26T11:16:31.645Z,6.21
2023-01-26T11:21:42.382Z,6.22
2023-01-26T11:27:14.323Z,6.41
2023-01-26T11:32:29.561Z,6.56
2023-01-26T11:37:41.019Z,6.65
2023-01-26T11:42:54.167Z,6.58
2023-01-26T11:48:16.271Z,6.54
2023-01-26T11:53:57.320Z,6.40
2023-01-26T11:59:09.463Z,6.53
2023-01-26T12:04:20.822Z,6.58
2023-01-26T12:09:33.398Z,6.64
2023-01-26T12:14:43.920Z,6.38
2023-01-26T12:19:54.459Z,6.45
2023-01-26T12:25:20.593Z,6.42
2023-01-26T12:30:38.179Z,6.42
2023-01-26T12:36:05.485Z,6.44
2023-01-26T12:41:17.869Z,6.46
2023-01-26T12:46:25.232Z,6.54
2023-01-26T12:51:34.529Z,6.45
2023-01-26T12:56:44.358Z,6.45
2023-01-26T13:01:49.859Z,6.46
2023-01-26T13:07:04.619Z,6.40
2023-01-26T13:12:47.309Z,6.44
2023-01-26T13:17:55.175Z,6.44
2023-01-26T13:22:58.959Z,6.28
2023-01-26T13:28:05.351Z,6.31
2023-01-26T13:33:21.445Z,6.30
2023-01-26T13:38:34.898Z,6.30
2023-01-26T13:43:43.865Z,6.28
2023-01-26T13:48:52.758Z,6.17
2023-01-26T13:54:04.011Z,6.12
2023-01-26T13:59:11.437Z,6.01
2023-01-26T14:04:21.113Z,5.98
2023-01-26T14:09:28.982Z,6.00
2023-01-26T14:14:36.632Z,6.00
2023-01-26T14:19:43.671Z,5.87
2023-01-26T14:24:50.630Z,5.78
2023-01-26T14:29:54.440Z,5.77
2023-01-26T14:35:01.980Z,5.80
2023-01-26T14:40:27.922Z,5.63
2023-01-26T14:45:33.539Z,5.64
2023-01-26T14:50:40.499Z,5.71
2023-01-26T14:55:46.183Z,5.67
2023-01-26T15:00:51.238Z,5.56
2023-01-26T15:06:21.269Z,5.53
2023-01-26T15:11:48.828Z,5.54
2023-01-26T15:16:55.864Z,5.53
2023-01-26T15:22:01.448Z,5.48
2023-01-26T15:27:09.105Z,5.44
2023-01-26T15:32:30.383Z,5.52
2023-01-26T15:37:36.385Z,5.44
2023-01-26T15:42:40.620Z,5.42
2023-01-26T15:47:44.763Z,5.44
2023-01-26T15:52:50.043Z,5.47
2023-01-26T15:57:53.778Z,5.40
2023-01-26T16:02:58.005Z,5.37
2023-01-26T16:08:03.581Z,5.38
2023-01-26T16:13:11.084Z,5.39
2023-01-26T16:18:14.868Z,5.25
2023-01-26T16:23:25.167Z,5.36
2023-01-26T16:28:28.935Z,5.35
2023-01-26T16:33:32.794Z,5.28
2023-01-26T16:38:38.223Z,5.32
2023-01-26T16:43:43.574Z,5.24
2023-01-26T16:48:47.980Z,5.33
2023-01-26T16:53:54.961Z,5.35
2023-01-26T16:58:58.641Z,5.31
2023-01-26T17:04:03.071Z,5.35
2023-01-26T17:09:08.661Z,5.32
2023-01-26T17:14:13.493Z,5.43
2023-01-26T17:19:17.337Z,5.49
2023-01-26T17:24:22.752Z,5.43
2023-01-26T17:29:26.616Z,5.42
2023-01-26T17:34:30.497Z,5.43
2023-01-26T17:39:35.773Z,5.55
2023-01-26T17:44:40.308Z,5.44
2023-01-26T17:49:44.066Z,5.57
2023-01-26T17:54:49.352Z,5.60
2023-01-26T17:59:53.100Z,5.62
2023-01-26T18:04:56.784Z,5.53
2023-01-26T18:10:02.194Z,5.52
2023-01-26T18:15:07.819Z,5.53
2023-01-26T18:20:15.215Z,5.48
2023-01-26T18:25:21.714Z,5.56
2023-01-26T18:30:25.919Z,5.55
2023-01-26T18:35:29.767Z,5.59
2023-01-26T18:40:35.371Z,5.56
2023-01-26T18:45:43.440Z,5.60
2023-01-26T18:50:49.931Z,5.58
2023-01-26T18:56:05.264Z,5.68
2023-01-26T19:01:13.124Z,5.60
2023-01-26T19:06:20.318Z,5.61
2023-01-26T19:11:27.680Z,5.60
2023-01-26T19:16:32.097Z,5.71
2023-01-26T19:21:36.007Z,5.67
2023-01-26T19:26:41.413Z,5.68
2023-01-26T19:31:45.269Z,5.68
2023-01-26T19:36:49.646Z,5.72
2023-01-26T19:41:54.914Z,5.60
2023-01-26T19:46:58.876Z,5.68
2023-01-26T19:52:02.559Z,5.78
2023-01-26T19:57:07.947Z,5.76
2023-01-26T20:02:11.827Z,5.76
2023-01-26T20:07:15.910Z,5.73
2023-01-26T20:12:21.157Z,5.78
2023-01-26T20:17:24.977Z,5.80
2023-01-26T20:22:33.678Z,5.76
2023-01-26T20:27:39.440Z,5.70
2023-01-26T20:32:43.486Z,5.78
2023-01-26T20:37:47.174Z,5.82
2023-01-26T20:42:53.639Z,5.84
2023-01-26T20:47:57.380Z,5.77
2023-01-26T20:53:01.174Z,5.81
2023-01-26T20:58:07.076Z,5.93
2023-01-26T21:03:10.815Z,5.95
2023-01-26T21:08:14.478Z,5.97
2023-01-26T21:13:19.642Z,6.00
2023-01-26T21:18:25.785Z,6.04
2023-01-26T21:23:29.440Z,5.94
2023-01-26T21:28:35.059Z,5.91
2023-01-26T21:33:40.086Z,5.93
2023-01-26T21:38:45.734Z,5.97
2023-01-26T21:43:50.888Z,5.97
2023-01-26T21:48:54.904Z,5.97
2023-01-26T21:53:58.712Z,5.97
2023-01-26T21:59:06.355Z,5.96
2023-01-26T22:04:12.533Z,5.90
2023-01-26T22:09:17.633Z,5.90
2023-01-26T22:14:25.135Z,5.81
2023-01-26T22:19:28.837Z,5.78
2023-01-26T22:24:32.487Z,5.86
2023-01-26T22:29:37.801Z,5.88
2023-01-26T22:34:41.465Z,5.86
2023-01-26T22:39:45.095Z,5.79
2023-01-26T22:44:50.171Z,5.77
2023-01-26T22:49:53.777Z,5.79
2023-01-26T22:54:57.461Z,5.83
2023-01-26T23:00:02.763Z,5.82
2023-01-26T23:05:09.056Z,5.78
2023-01-26T23:10:13.237Z,5.81
2023-01-26T23:15:18.768Z,5.79
2023-01-26T23:20:23.654Z,5.84
2023-01-26T23:25:44.653Z,5.82
2023-01-26T23:30:50.447Z,5.88
2023-01-26T23:35:54.761Z,5.88
2023-01-26T23:41:00.509Z,5.89
2023-01-26T23:46:06.996Z,5.93
2023-01-26T23:51:12.375Z,5.84
2023-01-26T23:56:17.865Z,5.93
